Terminal Aerodrome Forecast
Issued by NWS

Current Version | Previous Version | Text Only | Print | Product List | Glossary Off
Versions: 1 2 3 4 5 6 7 8 9 10 11 12 13

000
FTUS44 KSJT 312300
TAFSOA
TAF
KSOA 312322Z 0100/0124 19011KT P6SM SCT150 OVC250
     FM010100 18008KT P6SM SCT070 OVC250
     FM010900 18005KT P6SM BKN012
     FM011600 17009KT P6SM SCT012 BKN150=

USA.gov is the U.S. government's official web portal to all federal, state and local government web resources and services.